Time;durP1;ratioP1;P1;durP2;ratioP2;P2;SDS_P1;SDS_P2;PMS_P1;PMS_P2;Temp;Humidity;BMP_temperature;BMP_pressure;BME280_temperature;BME280_humidity;BME280_pressure;Samples;Min_cycle;Max_cycle;Signal;HPM_P1;HPM_P2
2022/12/24 00:01:08;;;;;;;25.08;3.65;;;;;;;13.04;68.47;100638.63;5011107;28;20036;-43
2022/12/24 00:03:35;;;;;;;28.75;4.03;;;;;;;12.91;68.43;100643.00;5011684;28;20454;-43
2022/12/24 00:06:09;;;;;;;26.25;3.80;;;;;;;12.95;68.77;100645.59;5011202;28;20022;-39
2022/12/24 00:08:35;;;;;;;24.48;3.03;;;;;;;12.62;69.78;100631.66;5011333;28;20479;-40
2022/12/24 00:11:00;;;;;;;23.73;3.60;;;;;;;12.75;68.84;100655.19;5011080;28;20043;-41
2022/12/24 00:13:25;;;;;;;21.98;3.33;;;;;;;12.64;69.42;100648.19;5011383;28;20052;-43
2022/12/24 00:15:51;;;;;;;29.00;4.00;;;;;;;13.04;68.14;100649.09;5011212;28;20025;-44
2022/12/24 00:18:16;;;;;;;25.80;3.88;;;;;;;12.66;69.04;100647.34;5010980;28;20034;-42
2022/12/24 00:20:46;;;;;;;28.05;3.70;;;;;;;12.83;68.61;100653.47;5010662;28;20021;-41
2022/12/24 00:23:11;;;;;;;20.95;3.17;;;;;;;12.75;68.68;100654.31;5010715;28;20022;-41
2022/12/24 00:25:36;;;;;;;26.15;3.70;;;;;;;12.69;68.98;100655.16;5010908;28;20551;-40
2022/12/24 00:28:02;;;;;;;18.52;3.10;;;;;;;12.58;69.26;100649.06;5011128;28;20518;-40
2022/12/24 00:30:27;;;;;;;24.80;3.60;;;;;;;12.67;69.10;100646.47;5010335;28;20108;-41
2022/12/24 00:32:53;;;;;;;24.63;3.53;;;;;;;12.52;68.93;100668.22;5010998;28;20395;-44
2022/12/24 00:35:18;;;;;;;29.38;4.32;;;;;;;12.76;68.45;100659.53;5011022;28;20325;-41
2022/12/24 00:37:47;;;;;;;25.17;3.75;;;;;;;12.62;68.53;100666.53;5010958;28;20368;-42
2022/12/24 00:40:12;;;;;;;24.98;3.72;;;;;;;12.55;68.88;100667.38;5010840;28;20071;-40
2022/12/24 00:42:38;;;;;;;27.48;4.03;;;;;;;12.56;69.25;100677.81;5010065;28;20026;-40
2022/12/24 00:45:03;;;;;;;23.48;3.60;;;;;;;12.77;68.69;100682.22;5010255;28;20200;-42
2022/12/24 00:47:29;;;;;;;32.55;4.40;;;;;;;12.80;67.93;100677.00;5010301;28;20087;-42
2022/12/24 00:49:54;;;;;;;23.25;3.97;;;;;;;12.83;68.49;100697.06;5010038;28;20427;-41
2022/12/24 00:52:19;;;;;;;26.77;3.60;;;;;;;12.65;69.10;100683.94;5010026;28;20026;-40
2022/12/24 00:54:44;;;;;;;23.02;3.50;;;;;;;12.55;69.04;100704.88;5010346;28;20033;-40
2022/12/24 00:57:10;;;;;;;24.90;3.38;;;;;;;12.45;69.38;100710.91;5010805;28;20022;-43
2022/12/24 00:59:35;;;;;;;28.30;3.80;;;;;;;12.31;69.69;100706.53;5010468;28;20045;-41
2022/12/24 01:02:01;;;;;;;22.52;3.55;;;;;;;12.64;68.67;100713.56;5012222;28;20026;-41
2022/12/24 01:07:10;;;;;;;27.05;3.78;;;;;;;12.44;69.09;100713.56;5014044;28;20407;-42
2022/12/24 01:09:36;;;;;;;26.88;3.70;;;;;;;12.68;68.76;100707.50;5013023;28;20026;-42
2022/12/24 01:12:01;;;;;;;27.17;3.53;;;;;;;12.64;68.51;100717.06;5009881;28;20056;-42
2022/12/24 01:14:26;;;;;;;24.20;3.65;;;;;;;12.69;68.54;100717.94;5010306;28;20022;-41
2022/12/24 01:16:52;;;;;;;25.73;3.78;;;;;;;12.85;67.96;100726.72;5009886;28;20026;-42
2022/12/24 01:19:17;;;;;;;23.42;3.45;;;;;;;12.74;68.29;100731.06;5011030;28;20029;-41
2022/12/24 01:21:42;;;;;;;32.65;4.00;;;;;;;12.51;68.71;100715.28;5011347;28;20296;-41
2022/12/24 01:24:13;;;;;;;25.10;3.83;;;;;;;12.91;67.85;100725.00;5010998;28;20037;-41
2022/12/24 01:26:38;;;;;;;27.02;3.95;;;;;;;12.67;68.67;100734.53;5010166;28;20022;-40
2022/12/24 01:29:03;;;;;;;26.05;3.58;;;;;;;12.85;68.39;100734.56;5011060;28;20706;-47
2022/12/24 01:31:29;;;;;;;24.25;3.50;;;;;;;12.62;68.53;100734.53;5011468;28;20331;-42
2022/12/24 01:33:54;;;;;;;26.27;3.67;;;;;;;12.74;68.44;100745.00;5010212;28;20093;-41
2022/12/24 01:36:19;;;;;;;28.60;3.72;;;;;;;12.61;68.44;100740.63;5009438;28;20029;-42
2022/12/24 01:38:45;;;;;;;28.40;4.15;;;;;;;12.40;69.70;100744.03;5009548;28;20430;-40
2022/12/24 01:44:25;;;;;;;30.20;4.05;;;;;;;12.42;69.53;100760.59;5009934;28;20041;-41
2022/12/24 01:46:55;;;;;;;25.70;4.03;;;;;;;12.51;68.90;100764.97;5009380;28;20029;-41
2022/12/24 01:49:21;;;;;;;28.52;4.07;;;;;;;12.47;69.53;100758.88;5009792;28;20026;-41
2022/12/24 01:52:01;;;;;;;27.60;4.00;;;;;;;12.45;69.56;100771.06;5009473;28;20037;-42
2022/12/24 01:54:42;;;;;;;24.63;3.72;;;;;;;12.64;69.04;100769.38;5009691;28;20076;-40
2022/12/24 01:57:13;;;;;;;28.00;4.10;;;;;;;12.70;68.66;100772.00;5009624;28;20462;-41
2022/12/24 01:59:42;;;;;;;22.10;3.10;;;;;;;12.70;68.61;100772.00;5009852;28;20018;-40
2022/12/24 02:02:09;;;;;;;29.20;4.05;;;;;;;12.51;69.67;100781.53;5009105;28;20040;-39
2022/12/24 02:04:48;;;;;;;26.50;4.05;;;;;;;12.23;70.37;100777.06;5009830;28;20373;-42
2022/12/24 02:07:13;;;;;;;29.48;4.03;;;;;;;12.31;70.37;100787.56;5009684;28;20411;-42
2022/12/24 02:09:39;;;;;;;28.23;3.63;;;;;;;12.34;70.42;100784.94;5010023;28;20029;-39
2022/12/24 02:12:06;;;;;;;23.67;3.80;;;;;;;12.61;69.39;100785.06;5009222;28;20030;-41
2022/12/24 02:14:32;;;;;;;27.17;3.03;;;;;;;12.42;69.47;100791.09;5009437;28;20113;-41
2022/12/24 02:17:07;;;;;;;19.20;2.78;;;;;;;12.77;69.00;100797.31;5009559;28;20060;-41
2022/12/24 02:19:41;;;;;;;22.52;3.15;;;;;;;12.76;68.18;100792.97;5012411;28;20496;-41
2022/12/24 02:22:16;;;;;;;23.92;3.47;;;;;;;12.63;69.33;100801.63;5012518;28;20025;-43
2022/12/24 02:25:09;;;;;;;25.55;3.72;;;;;;;12.86;68.08;100794.75;5012714;28;20029;-39
2022/12/24 02:28:13;;;;;;;24.77;3.17;;;;;;;12.68;68.79;100796.44;5012577;28;20041;-41
2022/12/24 02:30:47;;;;;;;22.70;3.60;;;;;;;12.65;68.98;100806.88;5012207;28;20037;-38
2022/12/24 02:33:15;;;;;;;20.70;3.60;;;;;;;12.77;68.52;100801.69;5012617;28;20026;-41
2022/12/24 02:36:10;;;;;;;20.10;3.15;;;;;;;12.75;68.68;100816.50;5012626;28;20477;-42
2022/12/24 02:38:46;;;;;;;23.65;3.40;;;;;;;13.00;68.64;100813.09;5012544;28;20505;-40
2022/12/24 02:42:04;;;;;;;20.65;3.10;;;;;;;13.01;68.15;100810.47;5011996;28;20033;-40
2022/12/24 02:44:14;;;;;;;21.45;3.10;;;;;;;13.26;67.58;100818.41;5012497;28;20044;-42
2022/12/24 02:46:40;;;;;;;20.70;3.08;;;;;;;13.35;67.06;100815.81;5012607;28;20030;-41
2022/12/24 02:49:05;;;;;;;24.30;3.13;;;;;;;13.34;67.19;100819.31;5012313;28;20475;-42
2022/12/24 02:51:30;;;;;;;19.65;3.13;;;;;;;13.59;66.55;100812.34;5012088;28;20029;-42
2022/12/24 02:53:58;;;;;;;26.98;3.50;;;;;;;13.39;67.06;100813.19;5012211;28;20051;-41
2022/12/24 02:57:00;;;;;;;21.88;3.13;;;;;;;13.27;67.75;100825.41;5012341;28;20302;-41
2022/12/24 02:59:44;;;;;;;22.27;3.33;;;;;;;13.20;68.21;100821.91;5012481;28;20099;-41
2022/12/24 03:02:09;;;;;;;23.73;3.30;;;;;;;12.87;69.73;100827.88;5011694;28;20029;-41
2022/12/24 03:04:45;;;;;;;24.02;3.17;;;;;;;13.04;69.04;100833.19;5012735;28;20037;-41
2022/12/24 03:07:17;;;;;;;26.13;3.30;;;;;;;13.21;68.64;100841.97;5030867;28;20049;-43
2022/12/24 03:09:57;;;;;;;21.17;3.10;;;;;;;13.26;69.04;100836.75;5033287;28;20033;-48
2022/12/24 03:12:32;;;;;;;24.40;3.60;;;;;;;13.28;69.08;100838.50;5018276;28;20405;-41
2022/12/24 03:14:58;;;;;;;24.77;3.47;;;;;;;13.19;69.54;100838.47;5012102;28;20033;-42
2022/12/24 03:17:25;;;;;;;24.73;3.38;;;;;;;13.08;69.56;100841.91;5011796;28;20034;-44
2022/12/24 03:19:53;;;;;;;23.52;3.38;;;;;;;13.09;70.24;100846.28;5011765;28;20456;-39
2022/12/24 03:22:19;;;;;;;22.92;3.22;;;;;;;13.17;69.90;100841.97;5011496;28;20101;-42
2022/12/24 03:24:44;;;;;;;21.38;3.40;;;;;;;13.12;70.20;100849.78;5012572;28;20109;-41
2022/12/24 03:27:11;;;;;;;31.00;4.20;;;;;;;13.05;69.89;100850.63;5011849;28;20459;-40
2022/12/24 03:29:39;;;;;;;23.05;3.67;;;;;;;12.99;70.48;100850.63;5011066;28;20556;-42
2022/12/24 03:32:04;;;;;;;24.52;3.65;;;;;;;13.02;70.45;100848.88;5011081;28;20079;-41
2022/12/24 03:34:30;;;;;;;27.58;4.05;;;;;;;13.17;69.82;100849.81;5011445;28;20055;-42
2022/12/24 03:36:55;;;;;;;22.58;3.20;;;;;;;13.10;70.01;100848.91;5011676;28;20563;-39
2022/12/24 03:39:21;;;;;;;22.42;3.47;;;;;;;13.20;70.03;100845.47;5011641;28;20100;-43
2022/12/24 03:41:47;;;;;;;24.05;3.97;;;;;;;13.02;70.57;100854.09;5011235;28;20515;-40
2022/12/24 03:44:12;;;;;;;26.17;3.85;;;;;;;13.30;69.51;100847.22;5011641;28;20378;-42
2022/12/24 03:46:38;;;;;;;26.58;3.80;;;;;;;13.45;68.91;100848.13;5011361;28;20036;-43
2022/12/24 03:49:03;;;;;;;27.08;4.10;;;;;;;13.37;69.08;100854.22;5011288;28;20100;-38
2022/12/24 03:51:28;;;;;;;23.35;3.60;;;;;;;13.51;69.01;100849.00;5010976;28;20126;-41
2022/12/24 03:53:55;;;;;;;22.23;3.70;;;;;;;13.24;69.77;100859.41;5011348;28;20034;-41
2022/12/24 03:56:22;;;;;;;25.30;3.90;;;;;;;13.03;70.04;100857.59;5011190;28;20387;-38
2022/12/24 03:58:48;;;;;;;29.58;3.55;;;;;;;13.30;69.22;100857.69;5011279;28;20391;-41
2022/12/24 04:01:14;;;;;;;23.13;3.20;;;;;;;13.16;70.09;100855.94;5010918;28;20030;-39
2022/12/24 04:03:40;;;;;;;22.63;3.60;;;;;;;13.08;70.22;100858.47;5011227;28;20391;-39
2022/12/24 04:06:14;;;;;;;24.98;3.55;;;;;;;13.02;70.47;100855.84;5011111;28;20021;-43
2022/12/24 04:08:40;;;;;;;21.63;3.15;;;;;;;13.42;69.38;100854.22;5011985;28;20105;-41
2022/12/24 04:11:07;;;;;;;21.98;3.58;;;;;;;13.25;69.74;100859.41;5011296;28;20193;-40
2022/12/24 04:13:33;;;;;;;20.35;3.50;;;;;;;13.17;70.06;100876.88;5011005;28;20032;-44
2022/12/24 04:16:01;;;;;;;22.40;3.47;;;;;;;13.30;69.41;100873.41;5010859;28;20116;-41
2022/12/24 04:18:27;;;;;;;22.20;3.20;;;;;;;13.30;69.86;100872.50;5011389;28;20494;-42
2022/12/24 04:20:52;;;;;;;24.45;3.78;;;;;;;13.01;70.75;100867.19;5011212;28;20045;-39
2022/12/24 04:23:18;;;;;;;27.67;3.55;;;;;;;13.27;69.82;100867.28;5011417;28;20034;-42
2022/12/24 04:25:43;;;;;;;29.25;4.15;;;;;;;13.43;69.00;100878.66;5010606;28;20034;-43
2022/12/24 04:28:09;;;;;;;21.75;3.20;;;;;;;13.60;68.57;100883.03;5010601;28;20084;-41
2022/12/24 04:30:36;;;;;;;28.67;4.32;;;;;;;13.63;68.39;100880.44;5010406;28;20064;-41
2022/12/24 04:33:02;;;;;;;27.05;3.72;;;;;;;13.54;68.48;100885.66;5010874;28;20121;-41
2022/12/24 04:35:27;;;;;;;25.75;3.78;;;;;;;13.29;69.66;100874.28;5010854;28;20379;-42
2022/12/24 04:37:52;;;;;;;26.73;3.15;;;;;;;13.29;69.87;100886.50;5010606;28;20112;-41
2022/12/24 04:40:17;;;;;;;24.75;3.85;;;;;;;13.26;69.92;100896.94;5010171;28;20028;-38
2022/12/24 04:42:43;;;;;;;30.92;3.97;;;;;;;13.44;69.42;100897.00;5009241;28;20110;-40
2022/12/24 04:45:08;;;;;;;26.05;3.70;;;;;;;13.47;69.26;100893.53;5010524;28;20077;-40
2022/12/24 04:47:34;;;;;;;21.65;3.45;;;;;;;13.70;68.33;100899.66;5010649;28;20029;-40
2022/12/24 04:50:00;;;;;;;22.02;3.40;;;;;;;13.45;69.19;100906.59;5010253;28;20026;-41
2022/12/24 04:52:26;;;;;;;25.35;4.25;;;;;;;13.12;70.33;100909.06;5010558;28;20036;-37
2022/12/24 04:54:51;;;;;;;23.80;3.20;;;;;;;13.45;69.46;100903.13;5010602;28;20030;-41
2022/12/24 04:57:16;;;;;;;27.70;3.45;;;;;;;13.27;69.89;100906.56;5010320;28;20028;-42
2022/12/24 04:59:42;;;;;;;22.75;2.97;;;;;;;13.55;69.20;100904.88;5010074;28;20415;-40
2022/12/24 05:02:07;;;;;;;26.70;3.83;;;;;;;13.24;71.01;100904.78;5009970;28;20040;-41
2022/12/24 05:04:32;;;;;;;28.23;3.55;;;;;;;13.25;71.47;100903.94;5010830;28;20526;-38
2022/12/24 05:06:57;;;;;;;27.55;3.35;;;;;;;13.17;71.87;100908.28;5010944;28;20057;-44
2022/12/24 05:09:23;;;;;;;26.38;3.03;;;;;;;13.55;70.41;100905.75;5011696;28;20034;-40
2022/12/24 05:11:48;;;;;;;29.88;3.60;;;;;;;13.38;70.87;100918.81;5011952;28;20026;-44
2022/12/24 05:14:13;;;;;;;25.27;3.60;;;;;;;13.33;71.29;100917.06;5010928;28;20040;-42
2022/12/24 05:16:39;;;;;;;27.95;4.13;;;;;;;13.42;70.58;100910.97;5011516;28;20064;-40
2022/12/24 05:19:04;;;;;;;21.42;3.72;;;;;;;13.51;70.60;100916.22;5011461;28;20339;-40
2022/12/24 05:21:29;;;;;;;27.13;3.90;;;;;;;13.34;70.71;100927.53;5010831;28;20076;-40
2022/12/24 05:26:43;;;;;;;24.80;3.55;;;;;;;13.28;70.81;100921.41;5011080;28;20094;-44
2022/12/24 05:29:11;;;;;;;22.65;3.83;;;;;;;13.37;70.61;100914.44;5010774;28;20022;-40
2022/12/24 05:31:38;;;;;;;29.05;4.22;;;;;;;13.14;71.08;100912.63;5010342;28;20026;-40
2022/12/24 05:34:04;;;;;;;27.60;4.22;;;;;;;13.29;70.45;100910.94;5009916;28;20018;-42
2022/12/24 05:36:29;;;;;;;30.08;4.03;;;;;;;13.31;70.12;100900.44;5009751;28;20037;-41
2022/12/24 05:38:55;;;;;;;31.20;4.05;;;;;;;13.27;70.44;100907.44;5010368;28;20030;-41
2022/12/24 05:41:20;;;;;;;28.50;3.80;;;;;;;13.31;70.33;100910.94;5010270;28;20030;-40
2022/12/24 05:43:46;;;;;;;28.23;4.00;;;;;;;13.06;71.03;100907.31;5011415;28;20084;-40
2022/12/24 05:46:13;;;;;;;34.10;3.78;;;;;;;13.21;70.16;100922.25;5011077;28;20025;-41
2022/12/24 05:48:39;;;;;;;30.15;3.85;;;;;;;13.12;70.65;100924.78;5010844;28;20563;-40
2022/12/24 05:51:06;;;;;;;23.85;3.53;;;;;;;13.24;70.09;100924.88;5011567;28;20058;-42
2022/12/24 05:53:32;;;;;;;27.58;4.03;;;;;;;13.36;69.75;100933.63;5012021;28;20170;-40
2022/12/24 05:56:06;;;;;;;22.63;3.38;;;;;;;13.33;69.54;100928.41;5015616;28;20026;-41
2022/12/24 05:58:32;;;;;;;27.98;3.70;;;;;;;13.20;70.05;100939.69;5016316;28;20026;-40
2022/12/24 06:00:57;;;;;;;31.33;4.07;;;;;;;12.92;71.01;100943.03;5016072;28;20029;-41
2022/12/24 06:03:22;;;;;;;29.75;4.40;;;;;;;12.83;71.27;100945.59;5016556;28;20026;-43
2022/12/24 06:05:48;;;;;;;30.20;4.38;;;;;;;12.93;70.74;100956.09;5020907;28;20029;-40
2022/12/24 06:08:13;;;;;;;33.28;3.95;;;;;;;12.88;70.88;100954.34;5020294;28;20080;-44
2022/12/24 06:10:38;;;;;;;28.23;3.95;;;;;;;13.04;70.55;100955.31;5016591;28;20471;-42
2022/12/24 06:13:03;;;;;;;30.20;3.70;;;;;;;13.15;69.55;100956.25;5015237;28;20113;-44
2022/12/24 06:15:29;;;;;;;36.28;4.15;;;;;;;12.86;70.49;100963.94;5014671;28;20033;-41
2022/12/24 06:17:54;;;;;;;29.48;3.75;;;;;;;12.90;70.30;100976.16;5014256;28;20030;-39
2022/12/24 06:20:19;;;;;;;28.30;4.22;;;;;;;12.91;70.58;100977.91;5013698;28;20024;-42
2022/12/24 06:22:45;;;;;;;31.52;4.18;;;;;;;13.16;69.82;100985.06;5014589;28;20110;-41
2022/12/24 06:25:10;;;;;;;29.35;4.03;;;;;;;13.21;69.87;100983.34;5014351;28;20053;-44
2022/12/24 06:27:35;;;;;;;28.40;4.05;;;;;;;13.16;70.03;100992.03;5013627;28;20293;-42
2022/12/24 06:30:01;;;;;;;29.00;4.03;;;;;;;13.24;69.99;100987.69;5013645;28;20025;-41
2022/12/24 06:32:26;;;;;;;29.42;4.32;;;;;;;13.09;70.30;100985.00;5013198;28;20465;-41
2022/12/24 06:34:51;;;;;;;37.03;4.55;;;;;;;13.16;69.93;100990.31;5013866;28;20056;-40
2022/12/24 06:37:19;;;;;;;30.77;4.70;;;;;;;13.15;70.22;100988.53;5013609;28;20029;-42
2022/12/24 06:39:45;;;;;;;30.95;3.97;;;;;;;13.15;70.07;100982.44;5013754;28;20018;-42
2022/12/24 06:42:12;;;;;;;29.60;4.43;;;;;;;13.21;69.96;100979.84;5013562;28;20094;-40
2022/12/24 06:44:37;;;;;;;33.13;4.95;;;;;;;12.98;69.90;100969.25;5013814;28;20458;-44
2022/12/24 06:47:02;;;;;;;37.67;4.93;;;;;;;12.75;71.01;100986.53;5013701;28;20129;-42
2022/12/24 06:49:27;;;;;;;28.02;3.83;;;;;;;13.04;70.07;100982.34;5013333;28;20026;-41
2022/12/24 06:51:53;;;;;;;26.50;3.85;;;;;;;12.69;71.27;100976.03;5014002;28;20104;-40
2022/12/24 06:54:18;;;;;;;35.83;4.38;;;;;;;12.66;71.13;100976.03;5013407;28;20025;-40
2022/12/24 06:56:43;;;;;;;22.80;3.72;;;;;;;12.56;71.71;100991.63;5012651;28;20449;-41
2022/12/24 06:59:09;;;;;;;34.50;4.55;;;;;;;12.70;71.18;100983.88;5013638;28;20033;-42
2022/12/24 07:01:34;;;;;;;31.50;4.78;;;;;;;12.57;71.56;100987.28;5012514;28;20041;-41
2022/12/24 07:03:59;;;;;;;29.40;4.30;;;;;;;12.77;70.71;100998.75;5013104;28;20065;-41
2022/12/24 07:06:27;;;;;;;32.00;4.13;;;;;;;12.78;69.94;101003.13;5011972;28;20026;-40
2022/12/24 07:08:53;;;;;;;35.72;4.57;;;;;;;12.69;71.04;101003.06;5013042;28;20030;-42
2022/12/24 07:11:19;;;;;;;27.15;3.88;;;;;;;12.76;69.79;101002.25;5014954;28;20438;-41
2022/12/24 07:13:45;;;;;;;38.00;5.15;;;;;;;12.46;71.38;101004.63;5015637;28;20037;-41
2022/12/24 07:16:11;;;;;;;35.13;4.68;;;;;;;12.41;71.42;101009.84;5014971;28;20036;-41
2022/12/24 07:18:36;;;;;;;34.45;4.57;;;;;;;12.45;71.26;101013.34;5011885;28;20101;-43
2022/12/24 07:21:03;;;;;;;34.33;4.28;;;;;;;12.43;71.58;101015.97;5011761;28;20438;-41
2022/12/24 07:23:30;;;;;;;31.85;4.40;;;;;;;12.54;71.58;101014.31;5011823;28;20033;-41
2022/12/24 07:26:00;;;;;;;25.70;3.80;;;;;;;12.69;71.28;101021.38;5011732;28;20026;-41
2022/12/24 07:28:25;;;;;;;39.35;4.68;;;;;;;12.55;71.75;101034.38;5011629;28;20026;-44
2022/12/24 07:30:50;;;;;;;35.90;5.03;;;;;;;12.47;71.54;101036.03;5011590;28;20021;-42
2022/12/24 07:33:15;;;;;;;32.78;4.38;;;;;;;12.39;71.76;101039.44;5011322;28;20034;-42
2022/12/24 07:35:41;;;;;;;34.20;4.88;;;;;;;12.61;70.80;101044.00;5011822;28;20029;-41
2022/12/24 07:38:06;;;;;;;34.72;3.83;;;;;;;12.48;71.22;101045.63;5011430;28;20099;-40
2022/12/24 07:40:33;;;;;;;31.42;4.10;;;;;;;12.60;71.09;101053.59;5011171;28;20037;-42
2022/12/24 07:42:58;;;;;;;33.60;4.53;;;;;;;12.26;72.25;101053.28;5011324;28;20018;-41
2022/12/24 07:45:23;;;;;;;36.53;4.47;;;;;;;12.63;70.82;101067.53;5011500;28;20032;-44
2022/12/24 07:47:49;;;;;;;35.78;4.13;;;;;;;12.27;72.22;101071.56;5011521;28;20371;-42
2022/12/24 07:50:14;;;;;;;32.15;4.30;;;;;;;12.45;71.39;101068.25;5011417;28;20036;-45
2022/12/24 07:52:39;;;;;;;34.65;4.22;;;;;;;12.41;71.67;101080.44;5011219;28;20025;-42
2022/12/24 07:55:05;;;;;;;30.27;4.22;;;;;;;12.48;71.15;101090.09;5011285;28;20483;-43
2022/12/24 07:57:30;;;;;;;31.40;3.92;;;;;;;12.47;71.49;101092.69;5011025;28;20464;-44
2022/12/24 07:59:56;;;;;;;33.35;3.90;;;;;;;12.39;71.46;101099.56;5011188;28;20026;-43
2022/12/24 08:02:21;;;;;;;32.25;4.35;;;;;;;12.44;71.15;101105.75;5010692;28;20037;-41
2022/12/24 08:04:46;;;;;;;28.58;3.92;;;;;;;12.58;71.55;101106.72;5011325;28;20598;-41
2022/12/24 08:07:11;;;;;;;29.65;4.13;;;;;;;12.48;71.43;101113.63;5011072;28;20033;-43
2022/12/24 08:09:37;;;;;;;34.72;4.60;;;;;;;12.54;70.59;101113.69;5010985;28;20088;-40
2022/12/24 08:12:03;;;;;;;29.15;4.47;;;;;;;12.65;70.54;101105.94;5010689;28;20045;-47
2022/12/24 08:14:28;;;;;;;27.83;4.38;;;;;;;12.60;70.10;101105.00;5011183;28;20037;-43
2022/12/24 08:16:54;;;;;;;30.23;3.72;;;;;;;12.33;72.30;101113.47;5010866;28;20391;-40
2022/12/24 08:19:19;;;;;;;34.70;4.30;;;;;;;12.24;72.58;101112.50;5011417;28;20101;-41
2022/12/24 08:21:44;;;;;;;37.88;4.30;;;;;;;12.59;71.35;101122.44;5011802;28;20101;-40
2022/12/24 08:24:10;;;;;;;32.75;4.47;;;;;;;12.40;72.35;101130.09;5011962;28;20029;-40
2022/12/24 08:26:35;;;;;;;36.08;4.85;;;;;;;12.35;72.34;101134.41;5011216;28;20018;-41
2022/12/24 08:29:02;;;;;;;29.33;4.47;;;;;;;12.45;71.74;101131.88;5010573;28;20513;-44
2022/12/24 08:31:28;;;;;;;34.83;4.45;;;;;;;12.63;71.79;101135.53;5010720;28;20205;-40
2022/12/24 08:33:54;;;;;;;31.00;4.30;;;;;;;12.63;71.69;101141.66;5010685;28;20168;-40
2022/12/24 08:36:19;;;;;;;37.20;4.75;;;;;;;12.31;73.38;101154.44;5010465;28;20049;-44
2022/12/24 08:38:44;;;;;;;32.97;4.00;;;;;;;12.69;72.12;101146.94;5010637;28;20025;-40
2022/12/24 08:41:10;;;;;;;28.42;4.88;;;;;;;12.47;72.90;101158.06;5010279;28;20479;-43
2022/12/24 08:43:35;;;;;;;35.13;4.30;;;;;;;13.01;71.51;101157.69;5010399;28;20040;-42
2022/12/24 08:46:03;;;;;;;37.08;5.30;;;;;;;12.80;72.29;101168.88;5011143;28;20026;-40
2022/12/24 08:48:29;;;;;;;31.00;4.40;;;;;;;12.83;71.57;101174.09;5010337;28;20397;-42
2022/12/24 08:50:54;;;;;;;33.78;4.80;;;;;;;13.10;71.50;101164.75;5010480;28;20381;-42
2022/12/24 08:53:19;;;;;;;31.33;4.78;;;;;;;13.15;71.27;101169.19;5010177;28;20040;-40
2022/12/24 08:55:45;;;;;;;31.55;4.97;;;;;;;13.04;71.60;101177.78;5010408;28;20083;-44
2022/12/24 08:58:10;;;;;;;32.92;5.20;;;;;;;13.31;70.36;101188.47;5010656;28;20026;-42
2022/12/24 09:00:36;;;;;;;27.17;4.40;;;;;;;13.40;70.07;101183.31;5010960;28;20026;-40
2022/12/24 09:03:01;;;;;;;38.10;5.03;;;;;;;12.94;71.30;101195.13;5012774;28;20057;-41
2022/12/24 09:05:27;;;;;;;26.40;4.40;;;;;;;13.27;70.17;101186.72;5011913;28;20060;-44
2022/12/24 09:07:53;;;;;;;34.38;4.65;;;;;;;13.01;70.90;101195.19;5012499;28;20023;-41
2022/12/24 09:10:19;;;;;;;31.00;4.53;;;;;;;13.07;70.70;101189.13;5011553;28;20084;-45
2022/12/24 09:12:44;;;;;;;28.10;4.30;;;;;;;13.08;70.57;101195.25;5011625;28;20516;-41
2022/12/24 09:15:10;;;;;;;31.20;4.50;;;;;;;12.92;71.68;101200.38;5011504;28;20113;-40
2022/12/24 09:17:35;;;;;;;33.45;4.30;;;;;;;13.20;70.41;101192.75;5010790;28;20032;-40
2022/12/24 09:20:01;;;;;;;25.55;4.22;;;;;;;12.93;70.53;101204.72;5011201;28;20025;-39
2022/12/24 09:22:26;;;;;;;28.48;4.35;;;;;;;13.22;70.40;101212.00;5011256;28;20030;-41
2022/12/24 09:24:54;;;;;;;26.58;4.22;;;;;;;13.30;70.02;101213.78;5010788;28;20033;-46
2022/12/24 09:27:20;;;;;;;35.60;4.47;;;;;;;13.18;70.43;101223.28;5011470;28;20041;-44
2022/12/24 09:29:45;;;;;;;24.60;3.88;;;;;;;13.65;69.08;101232.38;5015128;28;20021;-40
2022/12/24 09:32:11;;;;;;;30.85;4.25;;;;;;;13.51;68.69;101233.16;5014235;28;20061;-40
2022/12/24 09:34:36;;;;;;;34.47;5.28;;;;;;;13.28;69.79;101228.63;5014369;28;20014;-40
2022/12/24 09:37:02;;;;;;;24.38;4.63;;;;;;;13.57;69.08;101233.19;5014476;28;20450;-40
2022/12/24 09:39:28;;;;;;;26.98;4.72;;;;;;;13.52;69.10;101222.69;5014995;28;20046;-41
2022/12/24 09:42:06;;;;;;;29.98;4.18;;;;;;;13.24;69.41;101226.81;5014508;28;20137;-44
2022/12/24 09:44:34;;;;;;;31.25;4.47;;;;;;;13.19;69.11;101231.16;5013851;28;20026;-40
2022/12/24 09:47:07;;;;;;;29.55;3.92;;;;;;;13.47;68.66;101236.63;5013533;28;20097;-45
2022/12/24 09:49:39;;;;;;;30.50;4.45;;;;;;;13.48;68.61;101243.63;5013513;28;20033;-41
2022/12/24 09:52:09;;;;;;;26.33;3.97;;;;;;;13.18;69.42;101241.59;5013609;28;20029;-43
2022/12/24 09:54:38;;;;;;;28.55;4.30;;;;;;;13.50;68.69;101236.63;5013562;28;20083;-41
2022/12/24 09:57:13;;;;;;;30.23;3.88;;;;;;;13.57;67.58;101239.31;5013853;28;20630;-44
2022/12/24 09:59:42;;;;;;;29.10;3.70;;;;;;;13.43;68.06;101240.06;5013542;28;20030;-42
2022/12/24 10:02:13;;;;;;;32.67;3.88;;;;;;;13.36;68.25;101232.16;5013075;28;20506;-38
2022/12/24 10:04:40;;;;;;;31.20;4.63;;;;;;;13.01;68.90;101250.16;5013246;28;20030;-40
2022/12/24 10:07:28;;;;;;;23.88;4.18;;;;;;;13.60;67.28;101241.09;5013384;28;20491;-42
2022/12/24 10:10:06;;;;;;;32.72;3.67;;;;;;;13.42;68.00;101247.03;5013591;28;20041;-41
2022/12/24 10:12:55;;;;;;;25.27;3.97;;;;;;;13.40;67.85;101246.19;5013286;28;20025;-41
2022/12/24 10:15:28;;;;;;;20.95;3.50;;;;;;;13.51;67.63;101252.38;5013495;28;20112;-45
2022/12/24 10:18:23;;;;;;;23.25;3.78;;;;;;;13.84;66.29;101248.22;5013421;28;20040;-41
2022/12/24 10:21:01;;;;;;;23.83;3.50;;;;;;;13.52;67.07;101254.13;5012887;28;20034;-40
2022/12/24 10:23:39;;;;;;;24.30;3.65;;;;;;;13.78;66.42;101251.69;5013032;28;20029;-42
2022/12/24 10:26:11;;;;;;;23.92;3.53;;;;;;;13.92;65.98;101246.50;5013111;28;20437;-41
2022/12/24 10:28:58;;;;;;;31.02;3.92;;;;;;;13.81;66.58;101249.94;5012793;28;20026;-41
2022/12/24 10:31:32;;;;;;;23.02;3.85;;;;;;;13.40;67.55;101259.28;5012738;28;20034;-42
2022/12/24 10:34:04;;;;;;;;;;;;;;;13.64;67.37;101253.34;5013392;28;20030;-41
2022/12/24 10:36:30;;;;;;;28.05;4.03;;;;;;;13.38;67.63;101261.00;5012955;28;19909;-41
2022/12/24 10:38:57;;;;;;;23.67;3.70;;;;;;;14.00;66.19;101261.41;5013017;28;20032;-44
2022/12/24 10:41:25;;;;;;;25.33;4.28;;;;;;;14.03;65.98;101260.53;5012532;28;20105;-42
2022/12/24 10:43:52;;;;;;;30.27;4.28;;;;;;;14.25;65.18;101279.91;5012649;28;20091;-40
2022/12/24 10:46:34;;;;;;;29.70;4.07;;;;;;;13.73;66.95;101284.81;5012419;28;20032;-43
2022/12/24 10:49:02;;;;;;;29.73;4.38;;;;;;;13.59;66.68;101278.63;5012461;28;20048;-41
2022/12/24 10:51:40;;;;;;;32.30;4.72;;;;;;;13.62;67.05;101276.91;5012303;28;20474;-42
2022/12/24 10:54:15;;;;;;;26.23;3.80;;;;;;;14.03;66.16;101285.00;5012498;28;20104;-40
2022/12/24 10:56:49;;;;;;;30.13;4.25;;;;;;;14.06;66.14;101281.56;5012351;28;20030;-42
2022/12/24 10:59:40;;;;;;;25.08;3.92;;;;;;;13.85;66.39;101274.41;5012397;28;20494;-43
2022/12/24 11:02:25;;;;;;;24.40;3.90;;;;;;;13.72;66.93;101285.72;5012541;28;20109;-43
2022/12/24 11:04:50;;;;;;;27.25;4.25;;;;;;;13.47;67.45;101295.13;5014631;28;20026;-41
2022/12/24 11:07:21;;;;;;;24.88;3.90;;;;;;;13.81;66.52;101291.00;5015955;28;20048;-40
2022/12/24 11:10:19;;;;;;;26.63;3.70;;;;;;;13.83;66.81;101286.66;5016352;28;20026;-40
2022/12/24 11:12:47;;;;;;;24.95;4.00;;;;;;;13.85;67.02;101284.03;5014929;28;20105;-43
2022/12/24 11:15:12;;;;;;;25.77;3.72;;;;;;;13.73;66.32;101276.97;5014414;28;20069;-42
2022/12/24 11:17:38;;;;;;;23.83;3.70;;;;;;;13.49;67.24;101285.53;5014417;28;20072;-44
2022/12/24 11:20:05;;;;;;;28.73;4.20;;;;;;;13.68;66.74;101279.56;5014546;28;20030;-42
2022/12/24 11:22:32;;;;;;;23.80;3.40;;;;;;;13.54;66.55;101278.56;5014046;28;20029;-44
2022/12/24 11:25:17;;;;;;;22.90;3.95;;;;;;;13.22;67.61;101283.56;5013205;28;20036;-39
2022/12/24 11:27:48;;;;;;;33.78;3.80;;;;;;;13.54;67.18;101278.56;5013072;28;20030;-42
2022/12/24 11:30:13;;;;;;;27.75;3.90;;;;;;;13.75;66.21;101293.59;5011717;28;20490;-41